Time;durP1;ratioP1;P1;durP2;ratioP2;P2;SDS_P1;SDS_P2;PMS_P1;PMS_P2;Temp;Humidity;BMP_temperature;BMP_pressure;BME280_temperature;BME280_humidity;BME280_pressure;Samples;Min_cycle;Max_cycle;Signal;HPM_P1;HPM_P2
2021/09/29 00:00:50;;;;;;;1.03;0.73;;;21.50;99.90;;;;;;20459389;29;20249;-75
2021/09/29 00:10:53;;;;;;;0.43;0.27;;;21.40;99.90;;;;;;20428254;29;20253;-75
2021/09/29 00:20:58;;;;;;;1.80;0.60;;;21.40;99.90;;;;;;20410247;29;20228;-75
2021/09/29 00:31:04;;;;;;;0.93;0.47;;;21.50;99.90;;;;;;20562061;28;20331;-74
2021/09/29 00:41:10;;;;;;;0.40;0.30;;;21.60;99.90;;;;;;20503918;28;20193;-74
2021/09/29 00:51:14;;;;;;;0.30;0.27;;;21.50;99.90;;;;;;20504963;28;20315;-73
2021/09/29 01:01:19;;;;;;;1.40;0.53;;;21.40;99.90;;;;;;20504434;28;20235;-72
2021/09/29 01:11:29;;;;;;;1.40;0.67;;;21.20;99.90;;;;;;20502414;28;20684;-73
2021/09/29 01:21:43;;;;;;;0.63;0.50;;;21.10;99.90;;;;;;20502268;28;20201;-73
2021/09/29 01:31:50;;;;;;;0.30;0.13;;;20.90;99.90;;;;;;20570750;28;20236;-74
2021/09/29 01:41:54;;;;;;;0.53;0.53;;;20.90;99.90;;;;;;20501638;28;20239;-73
2021/09/29 01:51:59;;;;;;;1.23;0.37;;;20.80;99.90;;;;;;20499752;28;20252;-74
2021/09/29 02:02:03;;;;;;;2.73;1.43;;;20.70;99.90;;;;;;20500043;28;20599;-73
2021/09/29 02:12:09;;;;;;;0.33;0.30;;;20.60;99.90;;;;;;20497948;28;20260;-74
2021/09/29 02:22:16;;;;;;;1.50;1.37;;;20.60;99.90;;;;;;20497148;28;20277;-74
2021/09/29 02:32:21;;;;;;;0.27;0.27;;;20.70;99.90;;;;;;20564466;28;20225;-74
2021/09/29 02:42:24;;;;;;;0.40;0.40;;;21.10;99.90;;;;;;20496026;28;20219;-74
2021/09/29 02:52:29;;;;;;;0.20;0.00;;;21.30;99.90;;;;;;20495842;28;20220;-74
2021/09/29 03:02:33;;;;;;;0.40;0.20;;;21.30;99.90;;;;;;20494817;28;20264;-71
2021/09/29 03:12:38;;;;;;;0.20;0.10;;;21.30;99.90;;;;;;20493585;28;20705;-75
2021/09/29 03:22:42;;;;;;;0.20;0.20;;;21.00;99.90;;;;;;20496020;28;20200;-72
2021/09/29 03:32:48;;;;;;;0.20;0.20;;;20.90;99.90;;;;;;20542371;28;20564;-74
2021/09/29 03:42:52;;;;;;;0.20;0.20;;;20.70;99.90;;;;;;20493781;28;20684;-74
2021/09/29 03:52:57;;;;;;;0.87;0.47;;;20.30;99.90;;;;;;20475212;28;20718;-72
2021/09/29 04:03:01;;;;;;;0.30;0.30;;;20.10;99.90;;;;;;20493489;28;20315;-73
2021/09/29 04:13:07;;;;;;;0.20;0.17;;;20.10;99.90;;;;;;20491790;28;20232;-74
2021/09/29 04:23:10;;;;;;;1.07;0.80;;;19.90;99.90;;;;;;20496572;28;20193;-73
2021/09/29 04:33:15;;;;;;;0.37;0.20;;;19.90;99.90;;;;;;20553997;28;20714;-73
2021/09/29 04:43:19;;;;;;;0.30;0.30;;;19.80;99.90;;;;;;20498938;28;20203;-71
2021/09/29 04:53:24;;;;;;;3.70;1.00;;;19.50;99.90;;;;;;20501873;28;20338;-72
2021/09/29 05:03:29;;;;;;;0.30;0.30;;;19.40;99.90;;;;;;20482510;28;20225;-72
2021/09/29 05:13:35;;;;;;;1.13;0.40;;;19.30;99.90;;;;;;20482970;28;20236;-74
2021/09/29 05:23:40;;;;;;;0.40;0.40;;;19.30;99.90;;;;;;20493011;28;20252;-73
2021/09/29 05:33:45;;;;;;;0.20;0.10;;;19.30;99.90;;;;;;20580550;28;20314;-76
2021/09/29 05:43:49;;;;;;;0.47;0.37;;;19.30;99.90;;;;;;20580277;28;20557;-73
2021/09/29 05:53:54;;;;;;;0.30;0.20;;;19.30;99.90;;;;;;20558536;28;20268;-70
2021/09/29 06:03:57;;;;;;;0.20;0.20;;;19.40;99.90;;;;;;20523563;28;20316;-75
2021/09/29 06:14:04;;;;;;;0.40;0.40;;;19.50;99.90;;;;;;20399339;29;20770;-73
2021/09/29 06:24:08;;;;;;;0.60;0.40;;;19.50;99.90;;;;;;20442589;28;20188;-72
2021/09/29 06:34:13;;;;;;;0.20;0.20;;;19.60;99.90;;;;;;20511538;28;20590;-74
2021/09/29 06:44:17;;;;;;;2.53;1.20;;;19.90;99.90;;;;;;20465526;28;20503;-73
2021/09/29 06:54:26;;;;;;;0.30;0.30;;;20.40;99.90;;;;;;20507536;28;20627;-70
2021/09/29 07:04:30;;;;;;;2.97;0.60;;;21.10;99.90;;;;;;20490465;28;20414;-71
2021/09/29 07:14:36;;;;;;;0.20;0.20;;;21.70;99.90;;;;;;20473771;28;20578;-70
2021/09/29 07:24:40;;;;;;;0.20;0.00;;;22.10;99.90;;;;;;20510106;28;20207;-69
2021/09/29 07:34:44;;;;;;;0.20;0.00;;;22.30;99.90;;;;;;20479592;28;20307;-79
2021/09/29 07:44:50;;;;;;;1.23;0.70;;;22.60;99.90;;;;;;20459358;28;20667;-77
2021/09/29 07:54:56;;;;;;;1.65;0.88;;;22.70;99.90;;;;;;20491142;28;20690;-77
2021/09/29 08:05:17;;;;;;;0.20;0.10;;;22.80;99.90;;;;;;20457075;28;20538;-77
2021/09/29 08:15:24;;;;;;;1.23;0.50;;;23.10;99.90;;;;;;20475746;28;20213;-78
2021/09/29 08:35:55;;;;;;;10.35;0.35;;;23.60;99.90;;;;;;20583944;28;20767;-76
2021/09/29 08:46:04;;;;;;;0.50;0.43;;;24.40;99.90;;;;;;20584436;28;20595;-78
2021/09/29 09:17:04;;;;;;;0.20;0.20;;;23.50;99.90;;;;;;20498176;28;20212;-75
2021/09/29 09:27:09;;;;;;;1.52;0.80;;;23.50;99.90;;;;;;20516953;28;20251;-69
2021/09/29 09:37:16;;;;;;;0.30;0.20;;;23.70;99.90;;;;;;20578762;28;20219;-76
2021/09/29 09:47:22;;;;;;;0.55;0.55;;;24.30;99.90;;;;;;20560538;28;20200;-76
2021/09/29 09:57:28;;;;;;;0.55;0.40;;;24.10;99.90;;;;;;20572557;28;20216;-78
2021/09/29 10:07:32;;;;;;;1.95;0.75;;;24.20;99.90;;;;;;20497424;28;20312;-79
2021/09/29 10:28:01;;;;;;;0.20;0.20;;;24.60;99.90;;;;;;20540330;28;20220;-76
2021/09/29 11:30:22;;;;;;;0.20;0.10;;;24.50;99.90;;;;;;20554474;28;20931;-75
2021/09/29 12:11:49;;;;;;;1.58;0.75;;;23.20;99.90;;;;;;20508600;28;20698;-75
2021/09/29 12:21:56;;;;;;;0.55;0.45;;;23.70;99.90;;;;;;20510176;28;20233;-76
2021/09/29 12:32:18;;;;;;;0.20;0.13;;;25.50;99.90;;;;;;20575204;28;20231;-74
2021/09/29 12:42:30;;;;;;;0.20;0.13;;;24.50;99.90;;;;;;20576382;28;20212;-77
2021/09/29 12:52:36;;;;;;;0.20;0.20;;;23.40;99.90;;;;;;20580170;28;20290;-78
2021/09/29 13:02:45;;;;;;;0.30;0.15;;;23.40;99.90;;;;;;20524371;28;20239;-76
2021/09/29 13:12:52;;;;;;;0.20;0.10;;;23.40;99.90;;;;;;20419217;29;20249;-75
2021/09/29 13:23:04;;;;;;;0.20;0.10;;;23.70;99.90;;;;;;20421882;28;20196;-73
2021/09/29 13:43:31;;;;;;;0.60;0.45;;;24.50;99.90;;;;;;20512019;28;20189;-77
2021/09/29 13:53:35;;;;;;;0.95;0.73;;;27.00;99.90;;;;;;20479408;28;20237;-75
2021/09/29 14:14:09;;;;;;;1.45;0.63;;;25.70;99.90;;;;;;20494689;28;20252;-77
2021/09/29 14:35:11;;;;;;;6.38;0.55;;;29.70;99.90;;;;;;20574559;28;20229;-74
2021/09/29 14:45:17;;;;;;;0.75;0.75;;;30.40;99.90;;;;;;20570434;28;20449;-72
2021/09/29 14:55:21;;;;;;;0.50;0.22;;;29.40;99.90;;;;;;20569506;28;20235;-74
2021/09/29 15:05:28;;;;;;;0.25;0.15;;;29.70;99.90;;;;;;20476613;28;20698;-75
2021/09/29 15:15:33;;;;;;;0.20;0.15;;;29.90;99.90;;;;;;20489580;28;20232;-75
2021/09/29 15:56:54;;;;;;;0.50;0.38;;;26.80;99.90;;;;;;20488554;28;20283;-69
2021/09/29 16:07:06;;;;;;;0.20;0.10;;;25.90;99.90;;;;;;20490414;28;20493;-71
2021/09/29 16:37:56;;;;;;;0.20;0.10;;;24.10;99.90;;;;;;20549811;28;20255;-77
2021/09/29 16:48:04;;;;;;;0.70;0.40;;;23.70;99.90;;;;;;20550293;28;20445;-74
2021/09/29 16:58:12;;;;;;;0.20;0.20;;;23.40;99.90;;;;;;20500426;28;20225;-77
2021/09/29 17:08:18;;;;;;;2.60;0.88;;;23.30;99.90;;;;;;20499787;28;20315;-76
2021/09/29 17:18:22;;;;;;;0.20;0.10;;;23.40;99.90;;;;;;20500428;28;20272;-77
2021/09/29 17:28:28;;;;;;;0.30;0.25;;;22.80;99.90;;;;;;20547544;28;20272;-76
2021/09/29 17:59:21;;;;;;;4.97;0.38;;;22.50;99.90;;;;;;20481942;28;20327;-78
2021/09/29 18:09:29;;;;;;;0.40;0.30;;;22.40;99.90;;;;;;20496642;28;20267;-76
2021/09/29 18:19:32;;;;;;;0.80;0.60;;;22.30;99.90;;;;;;20475529;28;20473;-79
2021/09/29 18:29:38;;;;;;;0.20;0.00;;;22.40;99.90;;;;;;20551602;28;20199;-77
2021/09/29 18:39:43;;;;;;;1.35;0.10;;;22.40;99.90;;;;;;20508567;28;20225;-76
2021/09/29 18:49:48;;;;;;;0.22;0.13;;;22.50;99.90;;;;;;20475661;28;20201;-76
2021/09/29 19:10:15;;;;;;;2.38;0.70;;;22.50;99.90;;;;;;20463102;28;20642;-76
2021/09/29 19:20:22;;;;;;;0.20;0.10;;;22.50;99.90;;;;;;20493774;28;20208;-78
2021/09/29 19:30:28;;;;;;;4.30;1.15;;;22.50;99.90;;;;;;20552611;28;20255;-78
2021/09/29 19:40:32;;;;;;;0.77;0.30;;;22.50;99.90;;;;;;20480082;28;20192;-73
2021/09/29 20:11:22;;;;;;;0.57;0.23;;;22.50;99.90;;;;;;20494144;28;20224;-77
2021/09/29 20:21:26;;;;;;;1.70;0.38;;;22.30;99.90;;;;;;20487088;28;20238;-77
2021/09/29 20:31:31;;;;;;;0.20;0.10;;;22.30;99.90;;;;;;20572903;28;20224;-76
2021/09/29 20:51:59;;;;;;;0.28;0.28;;;22.40;99.90;;;;;;20501454;28;20639;-75
2021/09/29 21:02:02;;;;;;;0.30;0.25;;;22.40;99.90;;;;;;20500583;28;20311;-75
2021/09/29 21:12:11;;;;;;;1.50;1.30;;;22.30;99.90;;;;;;20484442;28;20308;-76
2021/09/29 21:22:15;;;;;;;0.30;0.10;;;22.30;99.90;;;;;;20501081;28;20726;-75
2021/09/29 21:32:21;;;;;;;0.20;0.20;;;22.20;99.90;;;;;;20509762;28;20332;-74
2021/09/29 21:42:43;;;;;;;0.23;0.20;;;22.10;99.90;;;;;;20499140;28;20682;-75
2021/09/29 22:03:25;;;;;;;0.20;0.10;;;21.60;99.90;;;;;;20500306;28;20263;-74
2021/09/29 22:24:16;;;;;;;0.20;0.10;;;21.00;99.90;;;;;;20491590;28;20197;-74
2021/09/29 23:05:35;;;;;;;0.20;0.10;;;20.20;99.90;;;;;;20494551;28;20459;-75
2021/09/29 23:36:24;;;;;;;0.30;0.30;;;19.70;99.90;;;;;;20530600;28;20216;-73
2021/09/29 23:46:27;;;;;;;0.20;0.10;;;19.50;99.90;;;;;;20500339;28;20628;-73
2021/09/29 23:56:33;;;;;;;1.90;0.70;;;19.40;99.90;;;;;;20509534;28;20248;-73
